Wednesday, January 17, 2018, 9:39 AM EST
Back to Local

KIAG, Niagara Falls International Airport

Location: Niagara Falls, NY, United States Lat: 43.117
Local Time: 9:39 AM EST (14:39 GMT) Lon: -78.933
Time Zone: US/Eastern Elev: 583 ft

Show me the last for .
Show Coded

Time T Td Feel RH Dir Speed Gust Alt SLP Vis Weather Sky Remarks
2018-01-17 08:53 18 10 4 70 250° 15 - 30.38 30.44 6 HZ OVC011 None
2018-01-17 07:53 17 10 4 73 240° 13 - 30.38 30.44 8 OVC012 1-hr Precip Total: Trace
2018-01-17 06:53 17 10 1 73 240° 18 - 30.38 30.44 4 -SN BKN014 OVC032 1-hr Precip Total: Trace
6-hr Precip Total (7am): 0.00"
6-hr Min Temp (7am): 16.0°F
6-hr Max Temp (7am): 18.0°F
2018-01-17 06:33 17 10 4 73 240° 13 - 30.38 - 5 -SN BKN014 OVC032 1-hr Precip Total: Trace
2018-01-17 06:24 17 9 1 69 240° 17 - 30.38 - 6 HZ BKN015 BKN034 OVC049 None
2018-01-17 05:53 17 9 2 69 240° 16 - 30.38 30.44 7 OVC046 1-hr Precip Total: Trace
2018-01-17 05:02 16 8 1 70 230° 15 - 30.37 - 7 FEW017 SCT025 OVC041 None
2018-01-17 04:53 16 8 0 70 240° 18 - 30.38 30.44 6 HZ SCT017 BKN024 OVC043 1-hr Precip Total: Trace
2018-01-17 04:48 16 9 0 72 230° 17 - 30.38 - 6 HZ SCT017 BKN024 OVC045 1-hr Precip Total: Trace
2018-01-17 04:14 16 8 0 70 240° 17 - 30.38 - 6 -SN SCT014 OVC043 1-hr Precip Total: Trace
2018-01-17 04:04 16 8 -2 70 240° 17 24 30.38 - 7 BKN014 OVC043 1-hr Precip Total: Trace
2018-01-17 03:53 16 8 1 70 240° 16 - 30.38 30.44 6 -SN SCT014 OVC043 1-hr Precip Total: Trace
6-hr Precip Total (4am): 0.00"
2018-01-17 02:53 17 9 -2 69 240° 20 26 30.39 30.45 7 -SN OVC038 1-hr Precip Total: Trace
2018-01-17 02:22 17 9 2 69 230° 15 - 30.38 - 5 -SN SCT017 OVC036 1-hr Precip Total: Trace
2018-01-17 01:56 17 9 5 69 230° 10 - 30.37 - 3 -SN BKN017 OVC032 1-hr Precip Total: Trace
2018-01-17 01:53 17 9 4 69 240° 12 - 30.37 30.43 2 -SN FEW014 SCT019 OVC032 1-hr Precip Total: Trace
2018-01-17 00:53 17 8 4 67 220° 12 - 30.37 30.43 6 HZ OVC033 1-hr Precip Total: Trace
6-hr Precip Total (1am): 0.00"
6-hr Min Temp (1am): 16.0°F
6-hr Max Temp (1am): 21.0°F
2018-01-16 23:53 17 7 4 63 240° 12 - 30.39 30.45 8 OVC031 24-hr Min Temp (12am): 16.0°F
24-hr Max Temp (12am): 28.0°F
2018-01-16 23:11 17 7 4 63 240° 13 - 30.39 - 10 SCT028 OVC035 None
2018-01-16 22:53 17 7 6 63 240° 9 - 30.40 30.45 10 BKN026 OVC039 1-hr Precip Total: Trace
2018-01-16 21:53 17 8 2 67 240° 15 - 30.39 30.45 9 BKN024 OVC034 1-hr Precip Total: Trace
6-hr Precip Total (10pm): 0.00"
2018-01-16 20:53 18 10 3 70 240° 17 - 30.39 30.45 7 OVC032 1-hr Precip Total: Trace
2018-01-16 19:53 20 13 6 73 230° 15 - 30.38 30.44 4 -SN FEW036 OVC043 1-hr Precip Total: Trace
2018-01-16 19:20 21 14 8 73 230° 15 - 30.38 - 4 -SN SCT012 BKN033 OVC050 1-hr Precip Total: Trace
2018-01-16 19:12 21 14 8 73 240° 14 - 30.38 - 3 -SN BKN012 BKN035 OVC050 1-hr Precip Total: Trace
2018-01-16 18:53 21 14 8 73 220° 15 - 30.37 30.43 3 -SN FEW011 BKN039 OVC060 1-hr Precip Total: Trace
6-hr Precip Total (7pm): 0.00"
6-hr Min Temp (7pm): 21.0°F
6-hr Max Temp (7pm): 28.0°F
2018-01-16 18:26 22 15 10 74 220° 13 - 30.36 - 3 -SN SCT024 BKN038 OVC060 1-hr Precip Total: Trace
2018-01-16 18:08 23 16 11 74 230° 14 - 30.36 - 3 -SN OVC024 1-hr Precip Total: Trace
2018-01-16 17:53 23 16 12 74 220° 10 - 30.36 30.41 2 -SN OVC024 1-hr Precip Total: Trace
2018-01-16 17:21 24 17 14 74 210° 10 - 30.35 - 4 -SN BKN024 OVC030 1-hr Precip Total: Trace
2018-01-16 17:00 25 17 17 71 230° 7 - 30.35 - 2 -SN OVC024 1-hr Precip Total: Trace
2018-01-16 16:53 25 17 16 71 230° 9 - 30.35 30.40 3 -SN BKN024 OVC055 1-hr Precip Total: Trace
2018-01-16 16:03 25 18 18 74 250° 6 - 30.34 - 4 -SN BKN027 OVC041 1-hr Precip Total: Trace
2018-01-16 15:53 26 19 21 74 250° 5 - 30.34 30.39 4 -SN SCT027 BKN037 OVC046 1-hr Precip Total: Trace
6-hr Precip Total (4pm): 0.00"
2018-01-16 15:28 26 17 18 68 270° 7 - 30.34 - 6 HZ SCT017 OVC037 1-hr Precip Total: Trace
2018-01-16 14:53 26 18 18 70 240° 8 - 30.33 30.39 5 HZ BKN018 BKN024 OVC055 None
2018-01-16 14:25 27 17 17 65 220° 10 - 30.34 - 10 SCT026 OVC050 None
2018-01-16 13:53 27 16 16 62 210° 14 - 30.34 30.39 9 BKN024 OVC050 None
2018-01-16 13:43 27 17 17 65 210° 12 - 30.34 - 10 SCT022 BKN027 OVC050 None
2018-01-16 12:53 28 17 22 62 240° 6 - 30.34 30.39 10 FEW027 FEW050 6-hr Min Temp (1pm): 21.9°F
6-hr Max Temp (1pm): 28.0°F
2018-01-16 12:00 27 16 16 62 240° 13 - 30.36 - 10 FEW050 None
2018-01-16 11:53 26 16 16 65 240° 12 - 30.37 30.42 10 BKN011 None
2018-01-16 10:53 25 19 14 77 230° 12 - 30.38 30.44 9 BKN011 BKN055 None
2018-01-16 09:53 25 19 14 77 230° 12 - 30.38 30.43 7 BKN013 OVC055 None

Support USWX by starting your Amazon purchase here.